sensor_id;sensor_type;location;lat;lon;timestamp;pressure;altitude;pressure_sealevel;temperature;humidity
804;BME280;25687;49.976;8.240;2023-04-28T00:01:14;99905.03;;;11.97;100.00
804;BME280;25687;49.976;8.240;2023-04-28T00:03:40;99910.25;;;11.95;100.00
804;BME280;25687;49.976;8.240;2023-04-28T00:06:05;99906.78;;;11.97;100.00
804;BME280;25687;49.976;8.240;2023-04-28T00:08:31;99894.63;;;11.84;100.00
804;BME280;25687;49.976;8.240;2023-04-28T00:10:56;99886.88;;;11.57;100.00
804;BME280;25687;49.976;8.240;2023-04-28T00:13:22;99894.88;;;11.52;100.00
804;BME280;25687;49.976;8.240;2023-04-28T00:15:48;99892.03;;;11.57;100.00
804;BME280;25687;49.976;8.240;2023-04-28T00:18:14;99885.59;;;11.50;100.00
804;BME280;25687;49.976;8.240;2023-04-28T00:20:39;99884.97;;;11.46;100.00
804;BME280;25687;49.976;8.240;2023-04-28T00:23:04;99882.75;;;11.54;100.00
804;BME280;25687;49.976;8.240;2023-04-28T00:25:30;99883.59;;;11.55;100.00
804;BME280;25687;49.976;8.240;2023-04-28T00:27:55;99882.00;;;11.52;100.00
804;BME280;25687;49.976;8.240;2023-04-28T00:30:20;99868.59;;;11.47;100.00
804;BME280;25687;49.976;8.240;2023-04-28T00:32:46;99874.09;;;11.55;100.00
804;BME280;25687;49.976;8.240;2023-04-28T00:35:11;99866.09;;;11.60;100.00
804;BME280;25687;49.976;8.240;2023-04-28T00:37:37;99866.38;;;11.55;100.00
804;BME280;25687;49.976;8.240;2023-04-28T00:40:02;99864.72;;;11.54;100.00
804;BME280;25687;49.976;8.240;2023-04-28T00:42:28;99846.06;;;11.51;100.00
804;BME280;25687;49.976;8.240;2023-04-28T00:44:54;99847.56;;;11.40;100.00
804;BME280;25687;49.976;8.240;2023-04-28T00:47:19;99838.75;;;11.30;100.00
804;BME280;25687;49.976;8.240;2023-04-28T00:49:45;99841.50;;;11.27;100.00
804;BME280;25687;49.976;8.240;2023-04-28T00:52:11;99848.31;;;11.28;100.00
804;BME280;25687;49.976;8.240;2023-04-28T00:54:37;99844.50;;;11.34;99.43
804;BME280;25687;49.976;8.240;2023-04-28T00:57:02;99838.19;;;11.25;99.37
804;BME280;25687;49.976;8.240;2023-04-28T00:59:29;99840.22;;;11.34;100.00
804;BME280;25687;49.976;8.240;2023-04-28T01:01:54;99839.19;;;11.22;100.00
804;BME280;25687;49.976;8.240;2023-04-28T01:04:20;99832.59;;;11.04;100.00
804;BME280;25687;49.976;8.240;2023-04-28T01:06:47;99820.13;;;10.83;100.00
804;BME280;25687;49.976;8.240;2023-04-28T01:09:13;99824.22;;;10.42;100.00
804;BME280;25687;49.976;8.240;2023-04-28T01:11:38;99821.66;;;10.12;100.00
804;BME280;25687;49.976;8.240;2023-04-28T01:14:04;99820.94;;;10.10;100.00
804;BME280;25687;49.976;8.240;2023-04-28T01:16:29;99826.44;;;10.18;100.00
804;BME280;25687;49.976;8.240;2023-04-28T01:18:57;99822.34;;;10.30;100.00
804;BME280;25687;49.976;8.240;2023-04-28T01:21:40;99823.50;;;10.10;100.00
804;BME280;25687;49.976;8.240;2023-04-28T01:24:05;99819.53;;;10.04;100.00
804;BME280;25687;49.976;8.240;2023-04-28T01:26:31;99820.13;;;9.93;100.00
804;BME280;25687;49.976;8.240;2023-04-28T01:28:56;99811.69;;;9.91;100.00
804;BME280;25687;49.976;8.240;2023-04-28T01:31:21;99798.91;;;9.90;100.00
804;BME280;25687;49.976;8.240;2023-04-28T01:33:46;99798.28;;;9.86;100.00
804;BME280;25687;49.976;8.240;2023-04-28T01:36:12;99798.75;;;9.93;100.00
804;BME280;25687;49.976;8.240;2023-04-28T01:38:37;99805.00;;;10.03;100.00
804;BME280;25687;49.976;8.240;2023-04-28T01:41:02;99804.50;;;10.12;100.00
804;BME280;25687;49.976;8.240;2023-04-28T01:43:28;99809.84;;;10.24;100.00
804;BME280;25687;49.976;8.240;2023-04-28T01:45:53;99811.41;;;10.26;100.00
804;BME280;25687;49.976;8.240;2023-04-28T01:48:18;99809.59;;;10.28;100.00
804;BME280;25687;49.976;8.240;2023-04-28T01:50:44;99814.38;;;10.34;100.00
804;BME280;25687;49.976;8.240;2023-04-28T01:53:09;99813.72;;;10.31;100.00
804;BME280;25687;49.976;8.240;2023-04-28T01:55:34;99811.75;;;10.20;100.00
804;BME280;25687;49.976;8.240;2023-04-28T01:58:00;99803.00;;;10.08;100.00
804;BME280;25687;49.976;8.240;2023-04-28T02:00:25;99807.63;;;10.17;100.00
804;BME280;25687;49.976;8.240;2023-04-28T02:02:51;99807.97;;;10.11;100.00
804;BME280;25687;49.976;8.240;2023-04-28T02:05:16;99807.78;;;10.14;100.00
804;BME280;25687;49.976;8.240;2023-04-28T02:07:42;99807.44;;;10.21;100.00
804;BME280;25687;49.976;8.240;2023-04-28T02:10:08;99814.88;;;10.25;100.00
804;BME280;25687;49.976;8.240;2023-04-28T02:12:33;99818.56;;;10.36;100.00
804;BME280;25687;49.976;8.240;2023-04-28T02:14:59;99819.34;;;10.38;100.00
804;BME280;25687;49.976;8.240;2023-04-28T02:17:25;99811.63;;;10.38;100.00
804;BME280;25687;49.976;8.240;2023-04-28T02:19:54;99804.34;;;10.30;100.00
804;BME280;25687;49.976;8.240;2023-04-28T02:22:21;99796.91;;;10.25;100.00
804;BME280;25687;49.976;8.240;2023-04-28T02:24:46;99794.22;;;10.27;100.00
804;BME280;25687;49.976;8.240;2023-04-28T02:27:11;99790.50;;;10.32;100.00
804;BME280;25687;49.976;8.240;2023-04-28T02:29:37;99791.97;;;10.37;100.00
804;BME280;25687;49.976;8.240;2023-04-28T02:32:02;99781.19;;;10.46;100.00
804;BME280;25687;49.976;8.240;2023-04-28T02:34:28;99788.88;;;10.46;100.00
804;BME280;25687;49.976;8.240;2023-04-28T02:36:53;99781.53;;;10.40;100.00
804;BME280;25687;49.976;8.240;2023-04-28T02:39:19;99786.84;;;10.37;100.00
804;BME280;25687;49.976;8.240;2023-04-28T02:41:46;99786.59;;;10.41;100.00
804;BME280;25687;49.976;8.240;2023-04-28T02:44:11;99785.22;;;10.50;100.00
804;BME280;25687;49.976;8.240;2023-04-28T02:46:36;99776.38;;;10.54;100.00
804;BME280;25687;49.976;8.240;2023-04-28T02:49:02;99771.63;;;10.62;100.00
804;BME280;25687;49.976;8.240;2023-04-28T02:51:27;99771.72;;;10.61;100.00
804;BME280;25687;49.976;8.240;2023-04-28T02:53:53;99777.50;;;10.64;100.00
804;BME280;25687;49.976;8.240;2023-04-28T02:56:18;99773.19;;;10.65;100.00
804;BME280;25687;49.976;8.240;2023-04-28T02:58:43;99769.16;;;10.61;100.00
804;BME280;25687;49.976;8.240;2023-04-28T03:01:08;99764.09;;;10.45;100.00
804;BME280;25687;49.976;8.240;2023-04-28T03:03:34;99756.63;;;10.40;100.00
804;BME280;25687;49.976;8.240;2023-04-28T03:05:59;99752.34;;;10.41;100.00
804;BME280;25687;49.976;8.240;2023-04-28T03:08:24;99747.19;;;10.41;100.00
804;BME280;25687;49.976;8.240;2023-04-28T03:10:50;99744.22;;;10.32;100.00
804;BME280;25687;49.976;8.240;2023-04-28T03:13:15;99748.22;;;10.38;100.00
804;BME280;25687;49.976;8.240;2023-04-28T03:15:40;99747.38;;;10.38;100.00
804;BME280;25687;49.976;8.240;2023-04-28T03:18:05;99749.31;;;10.48;100.00
804;BME280;25687;49.976;8.240;2023-04-28T03:20:31;99749.09;;;10.52;100.00
804;BME280;25687;49.976;8.240;2023-04-28T03:22:56;99743.88;;;10.53;100.00
804;BME280;25687;49.976;8.240;2023-04-28T03:25:22;99743.69;;;10.56;100.00
804;BME280;25687;49.976;8.240;2023-04-28T03:27:47;99738.81;;;10.66;100.00
804;BME280;25687;49.976;8.240;2023-04-28T03:30:12;99733.78;;;10.64;100.00
804;BME280;25687;49.976;8.240;2023-04-28T03:32:38;99727.34;;;10.72;100.00
804;BME280;25687;49.976;8.240;2023-04-28T03:35:03;99731.66;;;10.71;100.00
804;BME280;25687;49.976;8.240;2023-04-28T03:37:28;99739.25;;;10.73;100.00
804;BME280;25687;49.976;8.240;2023-04-28T03:39:54;99728.31;;;10.84;100.00
804;BME280;25687;49.976;8.240;2023-04-28T03:42:19;99724.47;;;10.76;100.00
804;BME280;25687;49.976;8.240;2023-04-28T03:44:44;99725.16;;;10.65;100.00
804;BME280;25687;49.976;8.240;2023-04-28T03:47:10;99718.50;;;10.61;100.00
804;BME280;25687;49.976;8.240;2023-04-28T03:49:35;99710.19;;;10.43;100.00
804;BME280;25687;49.976;8.240;2023-04-28T03:52:00;99699.91;;;10.43;100.00
804;BME280;25687;49.976;8.240;2023-04-28T03:54:25;99704.44;;;10.24;100.00
804;BME280;25687;49.976;8.240;2023-04-28T03:56:51;99714.16;;;10.04;100.00
804;BME280;25687;49.976;8.240;2023-04-28T03:59:16;99707.16;;;9.92;100.00
804;BME280;25687;49.976;8.240;2023-04-28T04:01:41;99707.97;;;9.92;100.00
804;BME280;25687;49.976;8.240;2023-04-28T04:04:07;99701.78;;;9.96;100.00
804;BME280;25687;49.976;8.240;2023-04-28T04:06:32;99695.78;;;9.96;100.00
804;BME280;25687;49.976;8.240;2023-04-28T04:08:58;99696.88;;;9.92;100.00
804;BME280;25687;49.976;8.240;2023-04-28T04:11:23;99698.16;;;9.84;100.00
804;BME280;25687;49.976;8.240;2023-04-28T04:13:48;99696.03;;;9.77;100.00
804;BME280;25687;49.976;8.240;2023-04-28T04:16:13;99685.31;;;9.70;100.00
804;BME280;25687;49.976;8.240;2023-04-28T04:18:40;99686.38;;;9.66;100.00
804;BME280;25687;49.976;8.240;2023-04-28T04:21:05;99688.69;;;9.71;100.00
804;BME280;25687;49.976;8.240;2023-04-28T04:23:30;99683.66;;;9.69;100.00
804;BME280;25687;49.976;8.240;2023-04-28T04:25:55;99687.38;;;9.63;100.00
804;BME280;25687;49.976;8.240;2023-04-28T04:28:21;99683.25;;;9.61;100.00
804;BME280;25687;49.976;8.240;2023-04-28T04:30:46;99683.44;;;9.72;100.00
804;BME280;25687;49.976;8.240;2023-04-28T04:33:11;99680.81;;;9.74;100.00
804;BME280;25687;49.976;8.240;2023-04-28T04:35:37;99683.28;;;9.75;100.00
804;BME280;25687;49.976;8.240;2023-04-28T04:38:02;99685.06;;;9.59;100.00
804;BME280;25687;49.976;8.240;2023-04-28T04:40:27;99681.88;;;9.55;100.00
804;BME280;25687;49.976;8.240;2023-04-28T04:42:52;99691.13;;;9.27;100.00
804;BME280;25687;49.976;8.240;2023-04-28T04:45:18;99700.97;;;9.19;100.00
804;BME280;25687;49.976;8.240;2023-04-28T04:47:43;99698.56;;;9.32;100.00
804;BME280;25687;49.976;8.240;2023-04-28T04:50:09;99695.81;;;9.35;100.00
804;BME280;25687;49.976;8.240;2023-04-28T04:52:35;99701.13;;;9.32;100.00
804;BME280;25687;49.976;8.240;2023-04-28T04:55:01;99704.69;;;9.29;100.00
804;BME280;25687;49.976;8.240;2023-04-28T04:57:26;99707.41;;;9.26;100.00
804;BME280;25687;49.976;8.240;2023-04-28T04:59:51;99709.06;;;9.27;100.00
804;BME280;25687;49.976;8.240;2023-04-28T05:02:17;99713.06;;;9.33;100.00
804;BME280;25687;49.976;8.240;2023-04-28T05:04:42;99718.34;;;9.30;100.00
804;BME280;25687;49.976;8.240;2023-04-28T05:07:07;99716.38;;;9.19;100.00
804;BME280;25687;49.976;8.240;2023-04-28T05:09:33;99711.00;;;9.08;100.00
804;BME280;25687;49.976;8.240;2023-04-28T05:11:58;99721.19;;;9.09;100.00
804;BME280;25687;49.976;8.240;2023-04-28T05:14:23;99714.56;;;9.05;100.00
804;BME280;25687;49.976;8.240;2023-04-28T05:16:49;99707.72;;;8.90;100.00
804;BME280;25687;49.976;8.240;2023-04-28T05:19:14;99724.91;;;9.03;100.00
804;BME280;25687;49.976;8.240;2023-04-28T05:21:40;99705.94;;;9.06;100.00
804;BME280;25687;49.976;8.240;2023-04-28T05:24:05;99714.56;;;9.05;100.00
804;BME280;25687;49.976;8.240;2023-04-28T05:26:31;99720.69;;;9.18;100.00
804;BME280;25687;49.976;8.240;2023-04-28T05:28:56;99720.59;;;9.20;100.00
804;BME280;25687;49.976;8.240;2023-04-28T05:31:21;99723.25;;;9.02;100.00
804;BME280;25687;49.976;8.240;2023-04-28T05:33:46;99727.91;;;9.12;100.00
804;BME280;25687;49.976;8.240;2023-04-28T05:36:12;99721.44;;;9.04;100.00
804;BME280;25687;49.976;8.240;2023-04-28T05:38:37;99723.44;;;8.99;100.00
804;BME280;25687;49.976;8.240;2023-04-28T05:41:03;99715.13;;;9.10;100.00
804;BME280;25687;49.976;8.240;2023-04-28T05:43:28;99719.59;;;9.07;100.00
804;BME280;25687;49.976;8.240;2023-04-28T05:45:53;99717.97;;;9.06;100.00
804;BME280;25687;49.976;8.240;2023-04-28T05:48:19;99709.34;;;9.07;100.00
804;BME280;25687;49.976;8.240;2023-04-28T05:50:44;99716.06;;;8.93;100.00
804;BME280;25687;49.976;8.240;2023-04-28T05:53:10;99719.59;;;9.07;100.00
804;BME280;25687;49.976;8.240;2023-04-28T05:55:35;99713.97;;;9.16;100.00
804;BME280;25687;49.976;8.240;2023-04-28T05:58:01;99716.22;;;9.06;100.00
804;BME280;25687;49.976;8.240;2023-04-28T06:00:27;99715.97;;;9.11;100.00
804;BME280;25687;49.976;8.240;2023-04-28T06:02:54;99714.41;;;9.24;100.00
804;BME280;25687;49.976;8.240;2023-04-28T06:05:19;99720.03;;;9.15;100.00
804;BME280;25687;49.976;8.240;2023-04-28T06:07:45;99714.56;;;9.21;100.00
804;BME280;25687;49.976;8.240;2023-04-28T06:10:10;99727.13;;;9.26;100.00
804;BME280;25687;49.976;8.240;2023-04-28T06:12:36;99727.28;;;9.07;100.00
804;BME280;25687;49.976;8.240;2023-04-28T06:15:01;99726.00;;;8.99;100.00
804;BME280;25687;49.976;8.240;2023-04-28T06:17:27;99734.50;;;9.00;100.00
804;BME280;25687;49.976;8.240;2023-04-28T06:19:54;99733.59;;;8.85;100.00
804;BME280;25687;49.976;8.240;2023-04-28T06:22:19;99736.31;;;8.98;100.00
804;BME280;25687;49.976;8.240;2023-04-28T06:24:45;99745.84;;;8.96;100.00
804;BME280;25687;49.976;8.240;2023-04-28T06:27:10;99740.78;;;8.94;100.00
804;BME280;25687;49.976;8.240;2023-04-28T06:29:36;99748.91;;;8.86;100.00
804;BME280;25687;49.976;8.240;2023-04-28T06:32:01;99746.44;;;9.01;100.00
804;BME280;25687;49.976;8.240;2023-04-28T06:34:27;99747.50;;;8.97;100.00
804;BME280;25687;49.976;8.240;2023-04-28T06:36:53;99747.16;;;9.19;100.00
804;BME280;25687;49.976;8.240;2023-04-28T06:39:20;99743.88;;;9.01;100.00
804;BME280;25687;49.976;8.240;2023-04-28T06:41:45;99743.19;;;8.97;100.00
804;BME280;25687;49.976;8.240;2023-04-28T06:44:11;99738.50;;;9.06;100.00
804;BME280;25687;49.976;8.240;2023-04-28T06:46:37;99737.75;;;9.19;100.00
804;BME280;25687;49.976;8.240;2023-04-28T06:49:02;99731.44;;;9.25;100.00
804;BME280;25687;49.976;8.240;2023-04-28T06:51:27;99738.63;;;9.34;100.00
804;BME280;25687;49.976;8.240;2023-04-28T06:53:53;99734.63;;;9.45;100.00
804;BME280;25687;49.976;8.240;2023-04-28T06:56:18;99733.75;;;9.30;100.00
804;BME280;25687;49.976;8.240;2023-04-28T06:58:44;99732.66;;;9.34;100.00
804;BME280;25687;49.976;8.240;2023-04-28T07:01:09;99709.56;;;9.34;100.00
804;BME280;25687;49.976;8.240;2023-04-28T07:03:34;99715.00;;;9.44;100.00
804;BME280;25687;49.976;8.240;2023-04-28T07:06:00;99717.16;;;9.51;100.00
804;BME280;25687;49.976;8.240;2023-04-28T07:08:25;99696.88;;;9.47;100.00
804;BME280;25687;49.976;8.240;2023-04-28T07:10:50;99707.66;;;9.68;100.00
804;BME280;25687;49.976;8.240;2023-04-28T07:13:16;99705.50;;;9.91;100.00
804;BME280;25687;49.976;8.240;2023-04-28T07:15:41;99696.50;;;9.83;100.00
804;BME280;25687;49.976;8.240;2023-04-28T07:18:06;99692.13;;;10.00;100.00
804;BME280;25687;49.976;8.240;2023-04-28T07:20:32;99709.38;;;9.98;100.00
804;BME280;25687;49.976;8.240;2023-04-28T07:22:57;99717.19;;;9.96;100.00
804;BME280;25687;49.976;8.240;2023-04-28T07:25:22;99708.47;;;9.99;100.00
804;BME280;25687;49.976;8.240;2023-04-28T07:27:47;99713.34;;;10.04;100.00
804;BME280;25687;49.976;8.240;2023-04-28T07:30:14;99705.63;;;10.18;100.00
804;BME280;25687;49.976;8.240;2023-04-28T07:32:39;99697.72;;;9.92;100.00
804;BME280;25687;49.976;8.240;2023-04-28T07:35:05;99705.56;;;9.75;100.00
804;BME280;25687;49.976;8.240;2023-04-28T07:37:30;99694.38;;;9.76;100.00
804;BME280;25687;49.976;8.240;2023-04-28T07:39:56;99695.03;;;9.79;100.00
804;BME280;25687;49.976;8.240;2023-04-28T07:42:21;99707.38;;;9.58;100.00
804;BME280;25687;49.976;8.240;2023-04-28T07:44:46;99715.06;;;9.58;100.00
804;BME280;25687;49.976;8.240;2023-04-28T07:47:12;99719.38;;;9.58;100.00
804;BME280;25687;49.976;8.240;2023-04-28T07:49:37;99713.63;;;9.68;100.00
804;BME280;25687;49.976;8.240;2023-04-28T07:52:03;99728.22;;;9.68;100.00
804;BME280;25687;49.976;8.240;2023-04-28T07:54:28;99712.25;;;9.63;100.00
804;BME280;25687;49.976;8.240;2023-04-28T07:56:55;99711.38;;;9.48;100.00
804;BME280;25687;49.976;8.240;2023-04-28T07:59:20;99720.44;;;9.53;100.00
804;BME280;25687;49.976;8.240;2023-04-28T08:01:45;99727.13;;;9.72;100.00
804;BME280;25687;49.976;8.240;2023-04-28T08:04:11;99729.03;;;9.68;100.00
804;BME280;25687;49.976;8.240;2023-04-28T08:06:37;99723.22;;;9.95;100.00
804;BME280;25687;49.976;8.240;2023-04-28T08:09:02;99725.03;;;10.24;100.00
804;BME280;25687;49.976;8.240;2023-04-28T08:11:30;99729.25;;;10.25;100.00
804;BME280;25687;49.976;8.240;2023-04-28T08:13:55;99728.78;;;10.32;100.00
804;BME280;25687;49.976;8.240;2023-04-28T08:16:25;99722.41;;;10.40;100.00
804;BME280;25687;49.976;8.240;2023-04-28T08:18:51;99726.38;;;10.29;100.00
804;BME280;25687;49.976;8.240;2023-04-28T08:21:16;99728.56;;;10.37;100.00
804;BME280;25687;49.976;8.240;2023-04-28T08:23:42;99727.72;;;10.37;100.00
804;BME280;25687;49.976;8.240;2023-04-28T08:26:07;99727.44;;;10.56;100.00
804;BME280;25687;49.976;8.240;2023-04-28T08:28:32;99727.78;;;10.64;100.00
804;BME280;25687;49.976;8.240;2023-04-28T08:30:58;99721.88;;;10.91;100.00
804;BME280;25687;49.976;8.240;2023-04-28T08:33:23;99728.06;;;11.16;100.00
804;BME280;25687;49.976;8.240;2023-04-28T08:35:49;99723.94;;;11.40;100.00
804;BME280;25687;49.976;8.240;2023-04-28T08:38:15;99724.34;;;11.34;100.00
804;BME280;25687;49.976;8.240;2023-04-28T08:40:42;99724.72;;;11.28;100.00
804;BME280;25687;49.976;8.240;2023-04-28T08:43:08;99714.16;;;11.45;100.00
804;BME280;25687;49.976;8.240;2023-04-28T08:45:40;99719.03;;;11.63;100.00
804;BME280;25687;49.976;8.240;2023-04-28T08:48:21;99717.84;;;11.82;100.00
804;BME280;25687;49.976;8.240;2023-04-28T08:50:51;99721.28;;;12.08;100.00
804;BME280;25687;49.976;8.240;2023-04-28T08:53:24;99716.34;;;12.31;100.00
804;BME280;25687;49.976;8.240;2023-04-28T08:55:53;99718.22;;;12.79;100.00
804;BME280;25687;49.976;8.240;2023-04-28T08:58:18;99722.19;;;12.71;100.00
804;BME280;25687;49.976;8.240;2023-04-28T09:00:44;99725.69;;;12.70;100.00
804;BME280;25687;49.976;8.240;2023-04-28T09:03:09;99722.63;;;12.65;100.00
804;BME280;25687;49.976;8.240;2023-04-28T09:05:35;99718.84;;;12.82;100.00
804;BME280;25687;49.976;8.240;2023-04-28T09:08:01;99716.91;;;13.10;100.00
804;BME280;25687;49.976;8.240;2023-04-28T09:10:26;99725.09;;;13.52;100.00
804;BME280;25687;49.976;8.240;2023-04-28T09:12:53;99713.00;;;13.29;100.00
804;BME280;25687;49.976;8.240;2023-04-28T09:17:59;99715.75;;;13.74;100.00
804;BME280;25687;49.976;8.240;2023-04-28T09:20:26;99713.25;;;13.61;100.00
804;BME280;25687;49.976;8.240;2023-04-28T09:22:52;99717.31;;;13.28;100.00
804;BME280;25687;49.976;8.240;2023-04-28T09:25:18;99716.41;;;13.29;100.00
804;BME280;25687;49.976;8.240;2023-04-28T09:27:45;99712.91;;;13.54;100.00
804;BME280;25687;49.976;8.240;2023-04-28T09:30:11;99720.28;;;13.59;100.00
804;BME280;25687;49.976;8.240;2023-04-28T09:32:36;99719.81;;;13.54;100.00
804;BME280;25687;49.976;8.240;2023-04-28T09:35:02;99716.97;;;13.46;100.00
804;BME280;25687;49.976;8.240;2023-04-28T09:37:29;99726.38;;;13.82;100.00
804;BME280;25687;49.976;8.240;2023-04-28T09:39:56;99727.78;;;13.98;100.00
804;BME280;25687;49.976;8.240;2023-04-28T09:42:41;99723.00;;;13.93;100.00
804;BME280;25687;49.976;8.240;2023-04-28T09:45:07;99708.16;;;13.84;100.00
804;BME280;25687;49.976;8.240;2023-04-28T09:47:35;99715.59;;;14.11;100.00
804;BME280;25687;49.976;8.240;2023-04-28T09:50:03;99708.75;;;13.99;100.00
804;BME280;25687;49.976;8.240;2023-04-28T09:52:29;99698.22;;;14.25;100.00
804;BME280;25687;49.976;8.240;2023-04-28T09:54:55;99702.66;;;14.00;100.00
804;BME280;25687;49.976;8.240;2023-04-28T09:57:21;99706.28;;;13.97;100.00
804;BME280;25687;49.976;8.240;2023-04-28T09:59:49;99710.13;;;13.80;100.00
804;BME280;25687;49.976;8.240;2023-04-28T10:02:15;99715.81;;;13.97;100.00
804;BME280;25687;49.976;8.240;2023-04-28T10:04:44;99712.19;;;14.22;100.00
804;BME280;25687;49.976;8.240;2023-04-28T10:07:11;99709.28;;;14.15;100.00
804;BME280;25687;49.976;8.240;2023-04-28T10:09:39;99701.72;;;14.24;100.00
804;BME280;25687;49.976;8.240;2023-04-28T10:12:08;99706.56;;;14.17;100.00
804;BME280;25687;49.976;8.240;2023-04-28T10:14:34;99713.72;;;14.36;100.00
804;BME280;25687;49.976;8.240;2023-04-28T10:17:00;99707.75;;;14.35;100.00
804;BME280;25687;49.976;8.240;2023-04-28T10:19:27;99714.66;;;14.01;100.00
804;BME280;25687;49.976;8.240;2023-04-28T10:27:30;99705.81;;;13.81;100.00
804;BME280;25687;49.976;8.240;2023-04-28T10:30:20;99702.63;;;13.88;100.00
804;BME280;25687;49.976;8.240;2023-04-28T10:32:46;99699.75;;;14.27;100.00
804;BME280;25687;49.976;8.240;2023-04-28T10:40:45;99701.19;;;15.42;100.00
804;BME280;25687;49.976;8.240;2023-04-28T10:56:06;99693.28;;;14.67;100.00
804;BME280;25687;49.976;8.240;2023-04-28T10:58:32;99696.22;;;14.28;100.00
804;BME280;25687;49.976;8.240;2023-04-28T11:06:31;99685.06;;;16.02;100.00
804;BME280;25687;49.976;8.240;2023-04-28T11:16:56;99688.97;;;16.17;100.00
804;BME280;25687;49.976;8.240;2023-04-28T11:19:33;99691.28;;;16.51;100.00
804;BME280;25687;49.976;8.240;2023-04-28T11:22:01;99685.50;;;16.38;100.00
804;BME280;25687;49.976;8.240;2023-04-28T11:24:28;99681.53;;;16.34;100.00
804;BME280;25687;49.976;8.240;2023-04-28T11:26:54;99687.88;;;16.60;100.00
804;BME280;25687;49.976;8.240;2023-04-28T11:29:38;99687.03;;;16.50;100.00
804;BME280;25687;49.976;8.240;2023-04-28T11:32:06;99668.97;;;17.19;100.00
804;BME280;25687;49.976;8.240;2023-04-28T11:34:32;99662.28;;;17.93;100.00
804;BME280;25687;49.976;8.240;2023-04-28T11:36:58;99663.41;;;18.56;100.00
804;BME280;25687;49.976;8.240;2023-04-28T11:39:28;99653.47;;;19.24;100.00
804;BME280;25687;49.976;8.240;2023-04-28T11:41:54;99665.13;;;19.82;100.00
804;BME280;25687;49.976;8.240;2023-04-28T11:44:22;99671.63;;;20.04;100.00
804;BME280;25687;49.976;8.240;2023-04-28T11:49:26;99664.59;;;19.52;100.00
804;BME280;25687;49.976;8.240;2023-04-28T11:52:03;99660.44;;;18.69;100.00
804;BME280;25687;49.976;8.240;2023-04-28T11:54:30;99657.69;;;18.88;100.00
804;BME280;25687;49.976;8.240;2023-04-28T11:56:58;99655.50;;;19.12;100.00
804;BME280;25687;49.976;8.240;2023-04-28T11:59:31;99656.59;;;19.27;100.00
804;BME280;25687;49.976;8.240;2023-04-28T12:04:43;99651.38;;;19.27;100.00
804;BME280;25687;49.976;8.240;2023-04-28T12:10:26;99650.44;;;19.81;100.00
804;BME280;25687;49.976;8.240;2023-04-28T12:12:30;99638.97;;;20.00;100.00
804;BME280;25687;49.976;8.240;2023-04-28T12:14:57;99643.66;;;19.88;100.00
804;BME280;25687;49.976;8.240;2023-04-28T12:17:36;99640.41;;;20.29;100.00
804;BME280;25687;49.976;8.240;2023-04-28T12:20:05;99636.13;;;20.20;100.00
804;BME280;25687;49.976;8.240;2023-04-28T12:22:45;99641.34;;;20.20;100.00
804;BME280;25687;49.976;8.240;2023-04-28T12:25:13;99641.88;;;20.23;100.00
804;BME280;25687;49.976;8.240;2023-04-28T12:27:40;99645.13;;;20.25;100.00
804;BME280;25687;49.976;8.240;2023-04-28T12:32:45;99651.13;;;20.60;100.00
804;BME280;25687;49.976;8.240;2023-04-28T12:35:10;99636.13;;;20.87;100.00
804;BME280;25687;49.976;8.240;2023-04-28T12:37:36;99634.63;;;20.68;100.00
804;BME280;25687;49.976;8.240;2023-04-28T12:40:06;99630.34;;;20.59;100.00
804;BME280;25687;49.976;8.240;2023-04-28T12:42:32;99633.47;;;20.62;100.00
804;BME280;25687;49.976;8.240;2023-04-28T12:44:57;99641.53;;;20.26;100.00
804;BME280;25687;49.976;8.240;2023-04-28T12:47:23;99647.66;;;20.52;100.00
804;BME280;25687;49.976;8.240;2023-04-28T12:49:48;99648.75;;;19.98;100.00
804;BME280;25687;49.976;8.240;2023-04-28T12:52:17;99651.88;;;19.75;100.00
804;BME280;25687;49.976;8.240;2023-04-28T12:54:42;99639.34;;;19.52;100.00
804;BME280;25687;49.976;8.240;2023-04-28T12:57:11;99625.19;;;19.55;100.00
804;BME280;25687;49.976;8.240;2023-04-28T12:59:37;99630.84;;;19.77;100.00
804;BME280;25687;49.976;8.240;2023-04-28T13:02:03;99633.13;;;20.06;100.00
804;BME280;25687;49.976;8.240;2023-04-28T13:04:29;99626.84;;;19.64;100.00
804;BME280;25687;49.976;8.240;2023-04-28T13:06:54;99630.97;;;18.68;100.00
804;BME280;25687;49.976;8.240;2023-04-28T13:09:19;99645.06;;;18.76;100.00
804;BME280;25687;49.976;8.240;2023-04-28T13:11:45;99643.63;;;18.63;100.00
804;BME280;25687;49.976;8.240;2023-04-28T13:14:11;99633.00;;;18.29;100.00
804;BME280;25687;49.976;8.240;2023-04-28T13:16:36;99633.41;;;18.52;100.00
804;BME280;25687;49.976;8.240;2023-04-28T13:19:02;99644.22;;;18.57;100.00
804;BME280;25687;49.976;8.240;2023-04-28T13:21:28;99648.41;;;18.40;100.00
804;BME280;25687;49.976;8.240;2023-04-28T13:23:54;99640.75;;;18.38;100.00
804;BME280;25687;49.976;8.240;2023-04-28T13:26:21;99633.66;;;17.93;100.00
804;BME280;25687;49.976;8.240;2023-04-28T13:28:49;99637.88;;;17.66;100.00
804;BME280;25687;49.976;8.240;2023-04-28T13:31:14;99626.94;;;17.63;100.00
804;BME280;25687;49.976;8.240;2023-04-28T13:33:39;99616.59;;;17.14;100.00
804;BME280;25687;49.976;8.240;2023-04-28T13:36:05;99627.13;;;16.92;100.00
804;BME280;25687;49.976;8.240;2023-04-28T13:38:32;99625.44;;;16.82;100.00
804;BME280;25687;49.976;8.240;2023-04-28T13:40:58;99643.75;;;16.60;100.00
804;BME280;25687;49.976;8.240;2023-04-28T13:43:23;99640.34;;;16.60;100.00
804;BME280;25687;49.976;8.240;2023-04-28T13:45:49;99614.72;;;16.36;100.00
804;BME280;25687;49.976;8.240;2023-04-28T13:48:14;99612.03;;;15.96;100.00
804;BME280;25687;49.976;8.240;2023-04-28T13:50:40;99605.75;;;15.99;100.00
804;BME280;25687;49.976;8.240;2023-04-28T13:53:07;99605.41;;;16.23;100.00
804;BME280;25687;49.976;8.240;2023-04-28T13:55:32;99594.13;;;16.54;100.00
804;BME280;25687;49.976;8.240;2023-04-28T13:57:58;99593.47;;;16.91;100.00
804;BME280;25687;49.976;8.240;2023-04-28T14:00:26;99589.13;;;16.91;100.00